createdAt,value
2019-03-25T00:01:14.865Z,72.82
2019-03-25T00:03:46.732Z,73.08
2019-03-25T00:06:17.905Z,72.56
2019-03-25T00:08:49.064Z,72.34
2019-03-25T00:11:20.286Z,72.00
2019-03-25T00:13:51.534Z,71.48
2019-03-25T00:16:22.818Z,71.91
2019-03-25T00:18:54.089Z,72.70
2019-03-25T00:21:25.318Z,73.77
2019-03-25T00:23:56.599Z,73.32
2019-03-25T00:26:27.835Z,72.93
2019-03-25T00:28:58.975Z,72.73
2019-03-25T00:31:30.222Z,73.41
2019-03-25T00:34:01.550Z,73.86
2019-03-25T00:36:32.752Z,73.97
2019-03-25T00:39:04.664Z,73.33
2019-03-25T00:41:36.036Z,73.42
2019-03-25T00:44:07.401Z,73.44
2019-03-25T00:46:38.631Z,72.92
2019-03-25T00:49:09.891Z,72.63
2019-03-25T00:51:41.216Z,72.13
2019-03-25T00:54:12.316Z,71.84
2019-03-25T00:56:43.606Z,71.36
2019-03-25T00:59:14.840Z,72.13
2019-03-25T01:01:46.046Z,72.52
2019-03-25T01:04:17.245Z,72.98
2019-03-25T01:06:48.547Z,73.13
2019-03-25T01:09:19.910Z,73.59
2019-03-25T01:11:51.074Z,74.00
2019-03-25T01:14:22.316Z,74.32
2019-03-25T01:16:53.583Z,74.66
2019-03-25T01:19:24.780Z,74.26
2019-03-25T01:21:56.038Z,73.82
2019-03-25T01:24:27.276Z,72.75
2019-03-25T01:26:58.532Z,72.91
2019-03-25T01:29:29.813Z,73.34
2019-03-25T01:32:01.096Z,72.98
2019-03-25T01:34:32.390Z,73.04
2019-03-25T01:37:03.642Z,73.34
2019-03-25T01:39:35.011Z,73.57
2019-03-25T01:42:06.230Z,73.19
2019-03-25T01:44:37.462Z,72.97
2019-03-25T01:47:08.653Z,72.43
2019-03-25T01:49:40.043Z,72.54
2019-03-25T01:52:11.324Z,72.41
2019-03-25T01:54:42.724Z,71.80
2019-03-25T01:57:14.117Z,71.43
2019-03-25T01:59:45.506Z,71.63
2019-03-25T02:02:16.864Z,71.93
2019-03-25T02:04:48.129Z,72.13
2019-03-25T02:07:19.621Z,72.08
2019-03-25T02:09:51.101Z,71.91
2019-03-25T02:12:22.622Z,72.06
2019-03-25T02:14:53.967Z,72.34
2019-03-25T02:17:25.489Z,72.19
2019-03-25T02:19:56.943Z,72.73
2019-03-25T02:22:28.398Z,72.60
2019-03-25T02:24:59.865Z,72.19
2019-03-25T02:27:31.239Z,71.83
2019-03-25T02:30:02.604Z,70.72
2019-03-25T02:32:34.076Z,71.30
2019-03-25T02:35:05.621Z,70.55
2019-03-25T02:37:37.027Z,71.21
2019-03-25T02:40:08.977Z,70.54
2019-03-25T02:42:40.373Z,70.03
2019-03-25T02:45:12.080Z,69.35
2019-03-25T02:47:43.605Z,69.02
2019-03-25T02:50:15.089Z,69.65
2019-03-25T02:52:46.497Z,69.53
2019-03-25T02:55:17.837Z,69.37
2019-03-25T02:57:49.325Z,69.60
2019-03-25T03:00:35.275Z,69.59
2019-03-25T03:03:07.398Z,69.90
2019-03-25T03:05:38.984Z,69.75
2019-03-25T03:08:10.438Z,70.44
2019-03-25T03:10:41.805Z,69.93
2019-03-25T03:13:13.247Z,69.43
2019-03-25T03:15:44.667Z,70.18
2019-03-25T03:18:16.250Z,70.25
2019-03-25T03:20:47.668Z,70.27
2019-03-25T03:23:19.149Z,69.51
2019-03-25T03:25:57.568Z,70.45
2019-03-25T03:28:23.834Z,70.44
2019-03-25T03:30:55.254Z,70.70
2019-03-25T03:33:26.803Z,70.68
2019-03-25T03:35:58.358Z,70.37
2019-03-25T03:38:29.725Z,71.04
2019-03-25T03:41:01.137Z,71.17
2019-03-25T03:43:32.509Z,71.80
2019-03-25T03:46:04.004Z,71.89
2019-03-25T03:48:35.353Z,72.01
2019-03-25T03:51:07.179Z,71.89
2019-03-25T03:53:38.542Z,72.13
2019-03-25T03:56:13.473Z,71.92
2019-03-25T03:58:45.225Z,72.16
2019-03-25T04:01:16.469Z,72.01
2019-03-25T04:03:47.650Z,72.19
2019-03-25T04:06:18.976Z,72.63
2019-03-25T04:08:50.243Z,71.93
2019-03-25T04:11:21.387Z,71.37
2019-03-25T04:13:52.637Z,72.31
2019-03-25T04:16:23.861Z,72.67
2019-03-25T04:18:55.076Z,72.96
2019-03-25T04:21:26.337Z,72.46
2019-03-25T04:23:57.707Z,71.84
2019-03-25T04:26:29.659Z,71.86
2019-03-25T04:29:01.142Z,71.39
2019-03-25T04:31:32.392Z,71.54
2019-03-25T04:34:03.727Z,72.12
2019-03-25T04:36:35.005Z,72.42
2019-03-25T04:39:08.545Z,72.27
2019-03-25T04:41:39.821Z,71.32
2019-03-25T04:44:11.079Z,70.42
2019-03-25T04:46:42.325Z,70.52
2019-03-25T04:49:13.634Z,69.15
2019-03-25T04:51:45.161Z,69.07
2019-03-25T04:54:16.441Z,69.15
2019-03-25T04:56:47.745Z,67.44
2019-03-25T04:59:19.075Z,67.15
2019-03-25T05:01:50.380Z,66.98
2019-03-25T05:04:21.589Z,66.96
2019-03-25T05:06:52.806Z,65.80
2019-03-25T05:09:23.942Z,66.83
2019-03-25T05:11:55.282Z,66.64
2019-03-25T05:14:26.576Z,66.53
2019-03-25T05:16:58.006Z,67.05
2019-03-25T05:19:29.047Z,66.67
2019-03-25T05:22:00.320Z,66.91
2019-03-25T05:24:31.542Z,67.42
2019-03-25T05:27:02.819Z,66.94
2019-03-25T05:29:34.069Z,66.73
2019-03-25T05:32:05.346Z,66.39
2019-03-25T05:34:36.595Z,66.39
2019-03-25T05:37:07.831Z,66.75
2019-03-25T05:39:39.078Z,66.49
2019-03-25T05:42:10.313Z,65.06
2019-03-25T05:44:41.537Z,64.87
2019-03-25T05:47:12.771Z,65.24
2019-03-25T05:49:44.048Z,65.38
2019-03-25T05:52:15.385Z,63.49
2019-03-25T05:54:46.647Z,62.37
2019-03-25T05:57:17.890Z,60.12
2019-03-25T05:59:49.170Z,59.17
2019-03-25T06:02:20.376Z,58.16
2019-03-25T06:04:51.719Z,57.47
2019-03-25T06:07:22.937Z,54.53
2019-03-25T06:09:54.275Z,55.42
2019-03-25T06:12:25.511Z,54.81
2019-03-25T06:14:56.799Z,54.59
2019-03-25T06:17:28.058Z,52.88
2019-03-25T06:19:59.315Z,53.49
2019-03-25T06:22:30.408Z,53.14
2019-03-25T06:25:01.728Z,53.69
2019-03-25T06:27:32.928Z,53.21
2019-03-25T06:30:04.271Z,53.93
2019-03-25T06:32:35.504Z,53.79
2019-03-25T06:35:08.912Z,52.98
2019-03-25T06:37:39.823Z,52.90
2019-03-25T06:40:11.266Z,53.56
2019-03-25T06:42:42.422Z,52.92
2019-03-25T06:45:13.753Z,52.88
2019-03-25T06:47:44.977Z,52.69
2019-03-25T06:50:16.306Z,53.48
2019-03-25T06:52:47.528Z,53.51
2019-03-25T06:55:18.835Z,52.35
2019-03-25T06:57:50.131Z,52.16
2019-03-25T07:00:21.489Z,52.49
2019-03-25T07:02:52.791Z,52.65
2019-03-25T07:05:24.038Z,52.61
2019-03-25T07:07:55.283Z,50.29
2019-03-25T07:10:44.763Z,52.25
2019-03-25T07:13:16.007Z,50.19
2019-03-25T07:15:47.233Z,49.71
2019-03-25T07:18:18.485Z,47.65
2019-03-25T07:20:49.767Z,46.55
2019-03-25T07:23:21.027Z,45.36
2019-03-25T07:25:52.263Z,45.13
2019-03-25T07:28:23.415Z,44.04
2019-03-25T07:30:54.690Z,44.61
2019-03-25T07:33:25.920Z,43.61
2019-03-25T07:35:57.129Z,43.12
2019-03-25T07:38:28.465Z,42.93
2019-03-25T07:40:59.677Z,41.87
2019-03-25T07:43:30.789Z,40.93
2019-03-25T07:46:02.390Z,41.60
2019-03-25T07:48:33.648Z,41.02
2019-03-25T07:51:04.923Z,40.84
2019-03-25T07:53:36.135Z,41.59
2019-03-25T07:56:07.430Z,41.12
2019-03-25T07:58:38.606Z,40.58
2019-03-25T08:01:09.790Z,39.45
2019-03-25T08:03:41.027Z,37.88
2019-03-25T08:06:12.279Z,35.42
2019-03-25T08:08:43.553Z,34.88
2019-03-25T08:11:14.778Z,34.62
2019-03-25T08:13:46.005Z,34.25
2019-03-25T08:16:17.125Z,34.01
2019-03-25T08:18:48.356Z,34.05
2019-03-25T08:21:19.579Z,33.32
2019-03-25T08:23:50.787Z,32.83
2019-03-25T08:26:22.042Z,33.28
2019-03-25T08:28:53.301Z,32.96
2019-03-25T08:31:24.531Z,34.27
2019-03-25T08:33:55.774Z,33.24
2019-03-25T08:36:27.104Z,34.57
2019-03-25T08:38:58.363Z,36.07
2019-03-25T08:41:29.591Z,35.37
2019-03-25T08:44:00.785Z,34.91
2019-03-25T08:46:32.190Z,34.43
2019-03-25T08:49:03.434Z,34.01
2019-03-25T08:51:34.771Z,39.86
2019-03-25T08:54:06.112Z,35.51
2019-03-25T08:56:37.320Z,35.24
2019-03-25T08:59:08.412Z,35.69
2019-03-25T09:01:39.628Z,35.33
2019-03-25T09:04:11.007Z,35.05
2019-03-25T09:06:42.175Z,34.76
2019-03-25T09:09:13.510Z,35.36
2019-03-25T09:11:44.735Z,34.95
2019-03-25T09:14:15.863Z,33.35
2019-03-25T09:16:47.076Z,32.74
2019-03-25T09:19:18.331Z,33.18
2019-03-25T09:21:49.663Z,33.98
2019-03-25T09:24:20.942Z,34.26
2019-03-25T09:26:52.197Z,31.31
2019-03-25T09:29:23.450Z,31.72
2019-03-25T09:31:54.679Z,32.37
2019-03-25T09:34:25.993Z,32.95
2019-03-25T09:36:57.130Z,32.05
2019-03-25T09:39:28.463Z,30.28
2019-03-25T09:41:59.712Z,27.94
2019-03-25T09:44:30.896Z,26.80
2019-03-25T09:47:02.454Z,25.78
2019-03-25T09:49:33.645Z,26.10
2019-03-25T09:52:04.891Z,25.55
2019-03-25T09:54:36.092Z,25.41
2019-03-25T09:57:07.358Z,25.82
2019-03-25T09:59:38.706Z,26.47
2019-03-25T10:02:09.994Z,25.59
2019-03-25T10:04:41.345Z,25.37
2019-03-25T10:07:22.262Z,26.28
2019-03-25T10:09:53.572Z,25.35
2019-03-25T10:12:24.968Z,25.20
2019-03-25T10:14:56.114Z,24.20
2019-03-25T10:17:27.225Z,23.06
2019-03-25T10:19:58.543Z,24.67
2019-03-25T10:22:29.842Z,23.82
2019-03-25T10:25:01.066Z,23.05
2019-03-25T10:27:32.205Z,21.30
2019-03-25T10:30:03.584Z,21.83
2019-03-25T10:32:34.738Z,20.90
2019-03-25T10:35:06.690Z,20.77
2019-03-25T10:37:38.008Z,19.74
2019-03-25T10:40:09.719Z,21.58
2019-03-25T10:42:40.963Z,22.18
2019-03-25T10:45:12.769Z,23.52
2019-03-25T10:47:44.071Z,25.72
2019-03-25T10:50:15.412Z,26.07
2019-03-25T10:52:46.720Z,28.18
2019-03-25T10:55:17.996Z,29.73
2019-03-25T10:57:49.230Z,31.56
2019-03-25T11:00:21.226Z,31.77
2019-03-25T11:02:52.470Z,33.00
2019-03-25T11:05:23.763Z,33.58
2019-03-25T11:07:55.134Z,34.03
2019-03-25T11:10:26.467Z,35.85
2019-03-25T11:12:57.718Z,34.68
2019-03-25T11:15:29.011Z,36.09
2019-03-25T11:18:00.121Z,34.63
2019-03-25T11:20:31.345Z,33.44
2019-03-25T11:23:02.541Z,31.14
2019-03-25T11:25:33.733Z,31.79
2019-03-25T11:28:05.000Z,31.22
2019-03-25T11:30:59.913Z,30.35
2019-03-25T11:33:31.374Z,28.53
2019-03-25T11:36:02.999Z,28.24
2019-03-25T11:38:34.439Z,28.12
2019-03-25T11:41:05.664Z,30.02
2019-03-25T11:43:36.865Z,30.80
2019-03-25T11:46:09.423Z,31.46
2019-03-25T11:48:40.714Z,32.42
2019-03-25T11:51:12.015Z,33.18
2019-03-25T11:53:43.238Z,33.77
2019-03-25T11:56:14.542Z,33.23
2019-03-25T11:58:45.768Z,33.22
2019-03-25T12:01:17.078Z,34.35
2019-03-25T12:03:48.302Z,33.34
2019-03-25T12:06:19.673Z,32.85
2019-03-25T12:08:50.936Z,33.27
2019-03-25T12:11:23.717Z,32.05
2019-03-25T12:13:55.146Z,32.86
2019-03-25T12:16:26.446Z,33.33
2019-03-25T12:18:57.538Z,34.11
2019-03-25T12:21:28.649Z,34.43
2019-03-25T12:23:59.971Z,35.21
2019-03-25T12:26:31.286Z,35.33
2019-03-25T12:29:02.536Z,35.16
2019-03-25T12:31:33.761Z,35.49
2019-03-25T12:34:05.080Z,36.30
2019-03-25T12:36:36.311Z,37.33
2019-03-25T12:39:08.911Z,37.60
2019-03-25T12:41:40.165Z,37.44
2019-03-25T12:44:11.406Z,39.45
2019-03-25T12:46:42.594Z,39.88
2019-03-25T12:49:13.888Z,39.66
2019-03-25T12:51:45.151Z,44.58
2019-03-25T12:54:16.459Z,52.60
2019-03-25T12:56:47.717Z,55.67
2019-03-25T12:59:18.994Z,56.33
2019-03-25T13:01:53.299Z,56.06
2019-03-25T13:04:23.180Z,54.23
2019-03-25T13:06:54.480Z,53.18
2019-03-25T13:09:25.746Z,51.69
2019-03-25T13:11:57.006Z,50.15
2019-03-25T13:14:28.370Z,49.40
2019-03-25T13:16:59.558Z,49.55
2019-03-25T13:19:30.755Z,49.84
2019-03-25T13:22:01.959Z,49.81
2019-03-25T13:24:33.059Z,50.21
2019-03-25T13:27:04.244Z,49.89
2019-03-25T13:29:35.449Z,51.69
2019-03-25T13:32:06.682Z,53.23
2019-03-25T13:34:37.980Z,54.29
2019-03-25T13:37:09.184Z,56.03
2019-03-25T13:39:40.528Z,57.18
2019-03-25T13:42:11.822Z,59.12
2019-03-25T13:44:43.175Z,64.25
2019-03-25T13:47:14.259Z,67.62
2019-03-25T13:49:46.838Z,70.66
2019-03-25T13:52:18.151Z,71.98
2019-03-25T13:54:49.476Z,74.31
2019-03-25T13:57:20.729Z,74.00
2019-03-25T14:00:02.677Z,76.74
2019-03-25T14:02:24.826Z,77.19
2019-03-25T14:04:56.055Z,75.95
2019-03-25T14:07:27.287Z,75.96
2019-03-25T14:09:58.509Z,74.44
2019-03-25T14:12:29.710Z,75.52
2019-03-25T14:15:00.977Z,73.92
2019-03-25T14:17:32.380Z,74.90
2019-03-25T14:20:03.689Z,74.00
2019-03-25T14:22:34.953Z,76.55
2019-03-25T14:25:06.770Z,73.87
2019-03-25T14:27:38.028Z,72.22
2019-03-25T14:30:14.668Z,69.00
2019-03-25T14:32:43.251Z,64.27
2019-03-25T14:35:14.623Z,62.58
2019-03-25T14:37:45.881Z,59.80
2019-03-25T14:40:17.187Z,57.99
2019-03-25T14:42:48.506Z,54.47
2019-03-25T14:45:26.264Z,53.19
2019-03-25T14:47:52.774Z,49.58
2019-03-25T14:50:24.032Z,49.04
2019-03-25T14:52:55.313Z,50.38
2019-03-25T14:55:26.612Z,51.88
2019-03-25T14:57:57.800Z,52.07
2019-03-25T15:00:29.154Z,52.10
2019-03-25T15:03:00.564Z,51.32
2019-03-25T15:05:31.812Z,50.68
2019-03-25T15:08:03.120Z,51.12
2019-03-25T15:10:34.294Z,49.51
2019-03-25T15:13:05.565Z,52.43
2019-03-25T15:15:36.839Z,54.28
2019-03-25T15:18:15.515Z,50.73
2019-03-25T15:20:41.537Z,48.35
2019-03-25T15:23:13.527Z,53.08
2019-03-25T15:25:44.660Z,51.82
2019-03-25T15:28:15.817Z,51.52
2019-03-25T15:30:46.968Z,52.38
2019-03-25T15:33:18.140Z,51.01
2019-03-25T15:35:49.364Z,56.66
2019-03-25T15:38:20.516Z,57.87
2019-03-25T15:40:51.642Z,58.84
2019-03-25T15:43:22.896Z,59.84
2019-03-25T15:45:54.181Z,59.73
2019-03-25T15:48:25.363Z,58.79
2019-03-25T15:50:56.552Z,58.95
2019-03-25T15:53:28.823Z,58.12
2019-03-25T15:56:00.385Z,57.93
2019-03-25T15:58:31.459Z,59.01
2019-03-25T16:01:02.651Z,60.36
2019-03-25T16:03:33.896Z,60.58
2019-03-25T16:06:05.165Z,60.72
2019-03-25T16:08:36.492Z,60.53
2019-03-25T16:11:07.770Z,60.71
2019-03-25T16:13:39.119Z,61.37
2019-03-25T16:16:10.404Z,61.37
2019-03-25T16:18:43.306Z,61.32
2019-03-25T16:21:14.378Z,62.37
2019-03-25T16:23:45.684Z,60.65
2019-03-25T16:26:16.922Z,62.10
2019-03-25T16:28:48.181Z,67.66
2019-03-25T16:31:19.424Z,71.18
2019-03-25T16:33:50.689Z,72.35
2019-03-25T16:36:22.009Z,73.89
2019-03-25T16:38:53.248Z,72.69
2019-03-25T16:41:24.357Z,72.96
2019-03-25T16:43:55.581Z,73.10
2019-03-25T16:46:26.798Z,73.23
2019-03-25T16:48:58.091Z,73.73
2019-03-25T16:51:29.349Z,73.65
2019-03-25T16:54:00.713Z,72.92
2019-03-25T16:56:31.936Z,71.04
2019-03-25T16:59:03.281Z,72.69
2019-03-25T17:01:34.609Z,71.05
2019-03-25T17:04:05.895Z,71.34
2019-03-25T17:06:37.195Z,70.61
2019-03-25T17:09:09.155Z,70.09
2019-03-25T17:11:40.410Z,70.57
2019-03-25T17:14:11.715Z,70.02
2019-03-25T17:16:42.872Z,71.19
2019-03-25T17:19:14.129Z,72.45
2019-03-25T17:21:45.346Z,72.40
2019-03-25T17:24:17.460Z,72.87
2019-03-25T17:26:48.703Z,73.96
2019-03-25T17:29:19.932Z,74.11
2019-03-25T17:31:51.191Z,75.31
2019-03-25T17:34:22.446Z,75.05
2019-03-25T17:36:53.627Z,74.23
2019-03-25T17:39:24.840Z,75.01
2019-03-25T17:41:56.067Z,74.87
2019-03-25T17:44:27.353Z,74.78
2019-03-25T17:46:58.481Z,75.16
2019-03-25T17:49:30.111Z,73.99
2019-03-25T17:52:02.487Z,74.00
2019-03-25T17:54:35.061Z,74.79
2019-03-25T17:57:06.323Z,75.57
2019-03-25T17:59:37.598Z,77.66
2019-03-25T18:02:08.850Z,76.03
2019-03-25T18:04:39.998Z,77.65
2019-03-25T18:07:11.819Z,78.62
2019-03-25T18:09:42.924Z,78.78
2019-03-25T18:12:14.333Z,78.47
2019-03-25T18:14:45.641Z,79.02
2019-03-25T18:17:17.244Z,80.05
2019-03-25T18:19:48.486Z,79.39
2019-03-25T18:22:20.021Z,80.67
2019-03-25T18:24:51.317Z,81.29
2019-03-25T18:27:22.595Z,80.54
2019-03-25T18:29:53.923Z,79.03
2019-03-25T18:32:25.142Z,80.85
2019-03-25T18:34:56.557Z,78.81
2019-03-25T18:37:28.019Z,80.85
2019-03-25T18:39:59.251Z,79.72
2019-03-25T18:42:30.487Z,80.13
2019-03-25T18:45:02.210Z,81.33
2019-03-25T18:47:34.187Z,82.55
2019-03-25T18:50:05.604Z,82.52
2019-03-25T18:52:36.897Z,80.91
2019-03-25T18:55:08.185Z,80.50
2019-03-25T18:57:39.450Z,80.68
2019-03-25T19:00:12.739Z,80.32
2019-03-25T19:02:44.137Z,81.03
2019-03-25T19:05:15.257Z,81.57
2019-03-25T19:07:47.692Z,80.45
2019-03-25T19:10:27.895Z,80.63
2019-03-25T19:12:59.152Z,81.43
2019-03-25T19:15:30.339Z,81.11
2019-03-25T19:18:01.698Z,81.06
2019-03-25T19:20:32.888Z,80.76
2019-03-25T19:23:04.154Z,81.48
2019-03-25T19:25:35.491Z,79.79
2019-03-25T19:28:06.844Z,82.26
2019-03-25T19:30:38.052Z,81.30
2019-03-25T19:33:09.268Z,80.84
2019-03-25T19:35:40.577Z,82.01
2019-03-25T19:38:11.805Z,81.42
2019-03-25T19:40:43.026Z,81.47
2019-03-25T19:43:14.337Z,82.89
2019-03-25T19:45:45.565Z,81.82
2019-03-25T19:48:16.873Z,81.47
2019-03-25T19:50:48.148Z,81.98
2019-03-25T19:53:19.794Z,82.28
2019-03-25T19:55:51.185Z,81.11
2019-03-25T19:58:22.446Z,81.91
2019-03-25T20:00:53.776Z,81.58
2019-03-25T20:03:25.122Z,82.28
2019-03-25T20:05:56.323Z,81.54
2019-03-25T20:08:27.723Z,82.46
2019-03-25T20:10:59.006Z,82.07
2019-03-25T20:13:30.562Z,82.41
2019-03-25T20:16:01.856Z,82.11
2019-03-25T20:18:33.088Z,82.18
2019-03-25T20:21:04.382Z,81.32
2019-03-25T20:23:35.880Z,81.85
2019-03-25T20:26:07.251Z,81.92
2019-03-25T20:28:38.475Z,81.42
2019-03-25T20:31:10.619Z,82.60
2019-03-25T20:33:41.881Z,83.93
2019-03-25T20:36:13.266Z,84.12
2019-03-25T20:38:49.266Z,83.05
2019-03-25T20:41:17.567Z,83.39
2019-03-25T20:43:48.811Z,83.40
2019-03-25T20:46:19.939Z,83.32
2019-03-25T20:48:51.174Z,82.18
2019-03-25T20:51:22.440Z,81.74
2019-03-25T20:53:53.791Z,81.93
2019-03-25T20:56:25.090Z,82.02
2019-03-25T20:58:56.385Z,81.36
2019-03-25T21:01:27.682Z,81.39
2019-03-25T21:03:58.994Z,81.94
2019-03-25T21:06:30.217Z,81.83
2019-03-25T21:09:01.456Z,81.84
2019-03-25T21:11:32.714Z,81.37
2019-03-25T21:14:03.791Z,81.70
2019-03-25T21:16:35.040Z,81.42
2019-03-25T21:19:06.418Z,80.66
2019-03-25T21:21:37.555Z,81.16
2019-03-25T21:24:08.805Z,81.78
2019-03-25T21:26:40.135Z,80.59
2019-03-25T21:29:11.486Z,80.08
2019-03-25T21:31:42.739Z,80.30
2019-03-25T21:34:14.188Z,80.49
2019-03-25T21:36:45.531Z,81.37
2019-03-25T21:39:16.752Z,80.40
2019-03-25T21:41:48.117Z,80.00
2019-03-25T21:44:19.371Z,80.98
2019-03-25T21:46:50.593Z,80.62
2019-03-25T21:49:21.997Z,80.83
2019-03-25T21:51:53.226Z,80.67
2019-03-25T21:54:24.766Z,80.68
2019-03-25T21:56:56.239Z,80.54
2019-03-25T21:59:27.640Z,80.55
2019-03-25T22:01:58.958Z,80.63
2019-03-25T22:04:30.156Z,80.88
2019-03-25T22:07:01.422Z,80.00
2019-03-25T22:09:32.731Z,80.91
2019-03-25T22:12:03.975Z,81.25
2019-03-25T22:14:35.190Z,80.87
2019-03-25T22:17:06.467Z,80.96
2019-03-25T22:19:37.754Z,80.62
2019-03-25T22:22:09.007Z,81.05
2019-03-25T22:24:40.221Z,80.79
2019-03-25T22:27:11.534Z,81.17
2019-03-25T22:29:42.805Z,81.00
2019-03-25T22:32:14.114Z,79.15
2019-03-25T22:34:45.353Z,79.97
2019-03-25T22:37:16.584Z,79.51
2019-03-25T22:39:47.902Z,80.26
2019-03-25T22:42:19.291Z,79.64
2019-03-25T22:44:50.605Z,80.25
2019-03-25T22:47:21.728Z,81.20
2019-03-25T22:49:52.863Z,80.50
2019-03-25T22:52:24.121Z,81.55
2019-03-25T22:54:55.479Z,81.87
2019-03-25T22:57:26.756Z,81.33
2019-03-25T22:59:58.076Z,81.15
2019-03-25T23:02:29.347Z,81.76
2019-03-25T23:05:00.715Z,81.76
2019-03-25T23:07:31.983Z,82.35
2019-03-25T23:10:03.353Z,82.67
2019-03-25T23:12:34.493Z,83.02
2019-03-25T23:15:06.646Z,82.88
2019-03-25T23:17:37.965Z,82.30
2019-03-25T23:20:09.550Z,82.26
2019-03-25T23:22:40.781Z,81.92
2019-03-25T23:25:12.257Z,82.64
2019-03-25T23:27:43.525Z,82.44
2019-03-25T23:30:15.253Z,82.84
2019-03-25T23:32:46.759Z,82.67
2019-03-25T23:35:17.936Z,81.96
2019-03-25T23:37:49.491Z,82.02
2019-03-25T23:40:24.086Z,82.08
2019-03-25T23:42:55.400Z,83.05
2019-03-25T23:45:26.782Z,83.34
2019-03-25T23:47:58.305Z,83.20
2019-03-25T23:50:29.933Z,83.04
2019-03-25T23:53:01.332Z,82.95
2019-03-25T23:55:32.747Z,83.27
2019-03-25T23:58:04.168Z,83.61
